TimeMDT,TemperatureF,Dew PointF,Humidity,Sea Level PressureIn,VisibilityMPH,Wind Direction,Wind SpeedMPH,Gust SpeedMPH,PrecipitationIn,Events,Conditions,WindDirDegrees,DateUTC
12:53 AM,53.1,34.0,48,29.87,10.0,West,5.8,-,N/A,,Clear,260,2012-10-03 06:53:00
1:53 AM,51.1,34.0,52,29.87,10.0,West,4.6,-,N/A,,Clear,270,2012-10-03 07:53:00
2:53 AM,50.0,34.0,54,29.87,10.0,West,4.6,-,N/A,,Clear,280,2012-10-03 08:53:00
3:53 AM,48.0,34.0,58,29.87,10.0,WNW,4.6,-,N/A,,Clear,290,2012-10-03 09:53:00
4:53 AM,46.9,33.1,59,29.88,10.0,WNW,3.5,-,N/A,,Clear,290,2012-10-03 10:53:00
6:53 AM,46.0,32.0,58,29.90,10.0,WNW,3.5,-,N/A,,Clear,290,2012-10-03 12:53:00
7:53 AM,46.0,33.1,61,29.93,10.0,WNW,3.5,-,N/A,,Clear,290,2012-10-03 13:53:00
8:53 AM,55.0,37.0,51,29.92,10.0,Calm,Calm,-,N/A,,Clear,0,2012-10-03 14:53:00
9:53 AM,60.1,34.0,38,29.91,10.0,SSE,3.5,-,N/A,,Clear,160,2012-10-03 15:53:00
10:53 AM,63.0,37.0,38,29.90,10.0,Variable,4.6,-,N/A,,Clear,0,2012-10-03 16:53:00
11:53 AM,66.0,36.0,33,29.89,10.0,ESE,4.6,-,N/A,,Clear,110,2012-10-03 17:53:00
12:53 PM,71.1,32.0,24,29.85,10.0,SW,6.9,-,N/A,,Clear,220,2012-10-03 18:53:00
1:53 PM,78.1,30.0,17,29.79,10.0,West,5.8,-,N/A,,Clear,280,2012-10-03 19:53:00
2:29 PM,78.8,21.2,12,29.94,10.0,WSW,13.8,34.5,N/A,,Clear,250,2012-10-03 20:29:00
2:53 PM,78.1,17.1,10,29.78,10.0,WSW,19.6,27.6,N/A,,Clear,240,2012-10-03 20:53:00
4:53 PM,75.9,8.1,7,29.81,10.0,WSW,17.3,35.7,N/A,,Clear,250,2012-10-03 22:53:00
5:53 PM,73.9,3.9,7,29.84,10.0,WSW,18.4,31.1,N/A,,Clear,250,2012-10-03 23:53:00
6:53 PM,70.0,1.0,7,29.88,10.0,WSW,12.7,25.3,N/A,,Clear,250,2012-10-04 00:53:00
7:53 PM,69.1,-2.9,6,29.94,10.0,WSW,4.6,-,N/A,,Clear,250,2012-10-04 01:53:00
8:53 PM,61.0,10.9,14,29.96,10.0,North,19.6,26.5,N/A,,Clear,350,2012-10-04 02:53:00
9:05 PM,60.8,12.2,15,30.10,10.0,North,10.4,-,N/A,,Clear,360,2012-10-04 03:05:00
9:53 PM,57.0,12.9,18,29.99,10.0,NE,9.2,16.1,N/A,,Clear,50,2012-10-04 03:53:00
10:53 PM,54.0,19.0,25,30.03,10.0,East,13.8,21.9,N/A,,Clear,80,2012-10-04 04:53:00
11:53 PM,50.0,21.0,32,30.05,10.0,East,17.3,23.0,N/A,,Clear,80,2012-10-04 05:53:00